Terminal Aerodrome Forecast
Issued by NWS

Home | Current Version | Previous Version | Text Only | Print | Product List | Glossary On
Versions: 1 2 3 4 5 6 7 8 9 10 11 12 13 14 15 16 17 18 19 20 21 22 23 24 25 26 27 28 29 30 31 32 33
000
FTUS45 KRIW 251700
TAFPNA
TAF
KPNA 251720Z 2518/2618 26007KT P6SM SCT025 BKN060
     FM252000 30010KT P6SM VCSH SCT035 BKN050
     FM260400 29006KT P6SM BKN060
      AMD LTD TO CLD VIS AND WIND=

USA.gov is the U.S. government's official web portal to all federal, state and local government web resources and services.